Victoria Falls, Zimbabwe

1:06 PM CAT on December 19, 2014 (GMT +0200)
Kasane | Change Station
CLOSE
Current Station
Airport
Location: Kasane,
Elevation: 3281 ft
Nearby Weather Stations

Elev 3281 ft 17.83 °S, 25.16 °E | Updated 1 hour ago

Scattered Clouds
Scattered Clouds
84 °F
Feels Like 88 °F
N
8
Wind Variable Wind from NNE

Today
High -- | Low -- °F
--% Chance of Precip.
Yesterday
High -- | Low -- °F
Precip. -- in
5:37 AM 6:50 PM
Waning Crescent, 8% visible
Pressure 30.01 in
Visibility 6.2 miles
Clouds Scattered Clouds 2500 ft
Heat Index 88 °F
Dew Point 70 °F
Humidity 62%
Rainfall 0.00 in
Snow Depth Not available.
UV 13 out of 12
Pollen Not available.
Air Quality Not available.
Flu Activity Not available.
METAR FBKE 191000Z 02007KT 320V050 9999 SCT025 29/21 Q1016

More Conditions Fewer Conditions

Pressure 30.01 in
Visibility 6.2 miles
Clouds Scattered Clouds 2500 ft
Heat Index 88 °F
Dew Point 70 °F
Humidity 62%
Rainfall 0.00 in
Snow Depth Not available.
UV 13 out of 12
Pollen Not available.
Air Quality Not available.
Flu Activity Not available.
METAR FBKE 191000Z 02007KT 320V050 9999 SCT025 29/21 Q1016

More Conditions Fewer Conditions

10-Day Weather Forecast

Almanac

Astronomy

Dec. 19, 2014 Rise Set
Actual Time
Civil Twilight
Nautical Twilight
Astronomical Twilight
Moon
Length of Visible Light
Length of Day
Tomorrow will be .
, % of the Moon is Illuminated

Today's Extremes

Country Highs Country Lows

Community

WunderPhotos

Upload Photos

1,778,965 photos uploaded!

WunderBlogs® & News

Nearby

Air Quality

  Air Quality AQ Index Pollutant
Not available.

Snow Depth

Station Depth Elevation

Earthquake Activity

City Distance Mag. Time & Date
Minimum magnitude displayed is 2.5.

Coastal Water Temperatures

Place Temperature

Nearby Weather Stations